Monday, June 25, 2018, 7:25 PM GMT
Back to Local

CWNE, North Point, Prince Edward Island

Location: , , Canada Lat: 47.083
Local Time: 7:25 PM GMT (19:25 GMT) Lon: -64
Time Zone: GMT Elev: 49 ft

Show me the last for .
Show Coded

Time T Td Feel RH Dir Speed Gust Alt SLP Vis Weather Sky Remarks
2018-06-25 19:00 50 45 42 83 40° 29 - - 29.92 0 Peak wind: 33 mph (29 kts) from 40° at 28 min
2018-06-25 18:00 50 46 - 83 40° 26 - - 29.91 0 Peak wind: 32 mph (28 kts) from 40° at 40 min
2018-06-25 17:00 51 47 - 86 40° 25 - - 29.92 0 Peak wind: 31 mph (27 kts) from 40° at 14 min
2018-06-25 16:00 51 47 - 86 40° 24 - - 29.90 0 Peak wind: 29 mph (26 kts) from 50° at 47 min
2018-06-25 15:00 51 47 - 86 40° 25 - - 29.91 0 Peak wind: 29 mph (26 kts) from 40° at 55 min
2018-06-25 14:00 52 48 - 86 50° 22 - - 29.91 0 Peak wind: 26 mph (23 kts) from 50° at 56 min
2018-06-25 13:00 51 48 - 88 50° 21 - - 29.90 0 Peak wind: 27 mph (24 kts) from 50° at 04 min
2018-06-25 12:00 52 48 - 88 50° 22 - - 29.91 0 Peak wind: 27 mph (24 kts) from 50° at 24 min
2018-06-25 11:00 51 49 - 89 50° 20 - - 29.89 0 Peak wind: 25 mph (22 kts) from 40° at 15 min
2018-06-25 10:00 51 47 - 86 40° 22 - - 29.89 0 Peak wind: 25 mph (22 kts) from 40° at 57 min
2018-06-25 09:00 51 47 - 87 50° 21 - - 29.88 0 Peak wind: 23 mph (20 kts) from 50° at 57 min
1-hr Precip Total: 0.01"
2018-06-25 08:00 51 48 - 90 50° 18 - - 29.89 0 Peak wind: 21 mph (19 kts) from 50° at 02 min
2018-06-25 07:00 50 48 - 91 50° 20 - - 29.88 0 Peak wind: 24 mph (21 kts) from 40° at 51 min
2018-06-25 06:00 49 48 43 97 40° 18 - - 29.88 0 Peak wind: 20 mph (18 kts) from 50° at 56 min
2018-06-25 04:00 51 48 - 91 40° 17 - - 29.88 0 Peak wind: 21 mph (19 kts) from 50° at 01 min
2018-06-25 03:00 50 48 - 91 40° 20 - - 29.88 0 Peak wind: 23 mph (20 kts) from 40° at 08 min
2018-06-25 02:00 50 48 - 92 40° 20 - - 29.87 0 Peak wind: 25 mph (22 kts) from 40° at 20 min
2018-06-25 01:00 51 49 - 93 30° 21 - - 29.87 0 Peak wind: 25 mph (22 kts) from 30° at 00 min
2018-06-25 00:00 51 50 - 94 30° 21 - - 29.85 0 Peak wind: 25 mph (22 kts) from 20° at 53 min
2018-06-24 23:00 51 49 - 91 10° 22 - - 29.82 0 Peak wind: 26 mph (23 kts) from 10° at 42 min
2018-06-24 22:00 52 50 - 92 10° 23 - - 29.79 0 Peak wind: 26 mph (23 kts) from 0° at 45 min
2018-06-24 21:00 53 50 - 89 360° 20 - - 29.77 0 Peak wind: 24 mph (21 kts) from 0° at 46 min
2018-06-24 20:00 54 48 - 82 340° 18 - - 29.77 0 Peak wind: 20 mph (18 kts) from 340° at 59 min

Support USWX by starting your Amazon purchase here.